createdAt,value
2022-08-19T00:01:30.183Z,14.50
2022-08-19T00:03:59.032Z,14.23
2022-08-19T00:06:25.843Z,13.90
2022-08-19T00:08:52.363Z,14.13
2022-08-19T00:11:25.848Z,14.82
2022-08-19T00:13:53.194Z,14.23
2022-08-19T00:16:25.201Z,14.07
2022-08-19T00:18:54.505Z,14.13
2022-08-19T00:21:21.052Z,12.93
2022-08-19T00:23:48.043Z,13.32
2022-08-19T00:26:14.695Z,14.60
2022-08-19T00:28:41.122Z,13.50
2022-08-19T00:31:09.546Z,13.93
2022-08-19T00:33:36.024Z,13.55
2022-08-19T00:36:06.403Z,14.60
2022-08-19T00:38:37.268Z,12.63
2022-08-19T00:41:07.846Z,13.70
2022-08-19T00:43:34.591Z,13.18
2022-08-19T00:46:02.313Z,12.25
2022-08-19T00:48:28.779Z,12.93
2022-08-19T00:50:56.386Z,13.60
2022-08-19T00:53:27.374Z,12.93
2022-08-19T00:55:57.230Z,13.18
2022-08-19T00:58:28.352Z,12.90
2022-08-19T01:00:55.023Z,12.98
2022-08-19T01:03:23.569Z,13.77
2022-08-19T01:05:51.612Z,12.77
2022-08-19T01:08:20.036Z,12.15
2022-08-19T01:10:54.062Z,12.52
2022-08-19T01:13:24.328Z,12.10
2022-08-19T01:15:57.677Z,12.53
2022-08-19T01:18:26.019Z,12.00
2022-08-19T01:20:55.159Z,12.75
2022-08-19T01:23:21.622Z,12.38
2022-08-19T01:25:51.194Z,12.25
2022-08-19T01:28:33.966Z,12.17
2022-08-19T01:31:00.820Z,11.48
2022-08-19T01:33:27.235Z,11.95
2022-08-19T01:35:53.634Z,12.10
2022-08-19T01:38:25.153Z,12.20
2022-08-19T01:40:52.833Z,12.17
2022-08-19T01:43:20.027Z,13.15
2022-08-19T01:45:47.194Z,12.38
2022-08-19T01:48:14.487Z,12.88
2022-08-19T01:50:40.897Z,13.48
2022-08-19T01:53:12.179Z,12.97
2022-08-19T01:55:41.659Z,12.98
2022-08-19T01:58:15.384Z,13.52
2022-08-19T02:00:43.560Z,12.52
2022-08-19T02:03:10.963Z,12.50
2022-08-19T02:05:37.673Z,13.30
2022-08-19T02:08:04.930Z,13.70
2022-08-19T02:10:31.682Z,12.88
2022-08-19T02:12:58.065Z,13.27
2022-08-19T02:15:26.644Z,13.65
2022-08-19T02:17:53.165Z,13.37
2022-08-19T02:20:20.604Z,14.38
2022-08-19T02:22:47.165Z,13.05
2022-08-19T02:25:15.228Z,12.70
2022-08-19T02:27:43.009Z,11.88
2022-08-19T02:30:14.137Z,12.17
2022-08-19T02:32:44.403Z,12.68
2022-08-19T02:35:12.885Z,11.85
2022-08-19T02:37:58.143Z,11.60
2022-08-19T02:40:24.884Z,12.50
2022-08-19T02:42:51.655Z,12.10
2022-08-19T02:45:18.293Z,12.98
2022-08-19T02:47:44.770Z,12.60
2022-08-19T02:50:11.276Z,13.52
2022-08-19T02:52:37.768Z,13.50
2022-08-19T02:55:05.495Z,12.60
2022-08-19T02:57:32.805Z,13.57
2022-08-19T02:59:59.876Z,13.40
2022-08-19T03:02:26.319Z,13.18
2022-08-19T03:04:52.766Z,13.40
2022-08-19T03:07:19.575Z,13.20
2022-08-19T03:09:46.355Z,13.43
2022-08-19T03:12:13.011Z,13.32
2022-08-19T03:14:39.404Z,14.02
2022-08-19T03:17:05.837Z,14.27
2022-08-19T03:19:32.465Z,13.90
2022-08-19T03:21:59.567Z,14.20
2022-08-19T03:24:26.037Z,14.40
2022-08-19T03:26:58.183Z,14.60
2022-08-19T03:29:30.312Z,14.73
2022-08-19T03:31:58.330Z,16.03
2022-08-19T03:34:27.432Z,15.93
2022-08-19T03:36:56.601Z,15.18
2022-08-19T03:39:24.904Z,14.68
2022-08-19T03:42:33.075Z,15.38
2022-08-19T03:44:39.891Z,14.80
2022-08-19T03:47:06.556Z,13.25
2022-08-19T03:49:36.031Z,12.93
2022-08-19T03:52:06.487Z,13.00
2022-08-19T03:54:33.020Z,12.85
2022-08-19T03:57:00.272Z,13.50
2022-08-19T03:59:34.799Z,13.50
2022-08-19T04:02:03.687Z,13.38
2022-08-19T04:04:31.889Z,12.88
2022-08-19T04:06:58.794Z,12.68
2022-08-19T04:09:26.242Z,12.57
2022-08-19T04:11:54.982Z,13.15
2022-08-19T04:14:25.126Z,13.60
2022-08-19T04:16:52.348Z,12.60
2022-08-19T04:19:19.624Z,13.07
2022-08-19T04:21:49.825Z,13.30
2022-08-19T04:24:18.992Z,13.27
2022-08-19T04:26:45.776Z,13.55
2022-08-19T04:29:16.354Z,12.70
2022-08-19T04:31:45.266Z,13.20
2022-08-19T04:34:14.033Z,12.33
2022-08-19T04:36:42.991Z,12.93
2022-08-19T04:39:18.136Z,13.15
2022-08-19T04:42:04.075Z,12.63
2022-08-19T04:44:35.607Z,12.85
2022-08-19T04:47:11.042Z,14.10
2022-08-19T04:49:38.354Z,14.32
2022-08-19T04:52:04.806Z,13.18
2022-08-19T04:54:38.488Z,12.65
2022-08-19T04:57:07.934Z,13.40
2022-08-19T04:59:35.005Z,13.10
2022-08-19T05:02:01.824Z,13.25
2022-08-19T05:04:32.796Z,13.70
2022-08-19T05:07:00.758Z,13.52
2022-08-19T05:09:55.324Z,13.93
2022-08-19T05:12:16.590Z,13.90
2022-08-19T05:14:43.219Z,13.55
2022-08-19T05:17:26.478Z,14.20
2022-08-19T05:20:12.901Z,13.65
2022-08-19T05:22:39.689Z,14.63
2022-08-19T05:25:13.814Z,13.37
2022-08-19T05:27:42.246Z,14.32
2022-08-19T05:30:10.062Z,14.15
2022-08-19T05:32:36.518Z,13.60
2022-08-19T05:35:04.272Z,13.82
2022-08-19T05:37:30.693Z,14.77
2022-08-19T05:39:57.243Z,14.00
2022-08-19T05:42:24.078Z,13.95
2022-08-19T05:44:51.885Z,14.57
2022-08-19T05:47:20.607Z,13.35
2022-08-19T05:49:47.597Z,12.97
2022-08-19T05:52:18.629Z,13.10
2022-08-19T05:54:48.648Z,12.32
2022-08-19T05:57:21.267Z,11.63
2022-08-19T05:59:49.330Z,11.38
2022-08-19T06:02:19.489Z,12.60
2022-08-19T06:04:46.082Z,12.23
2022-08-19T06:07:13.176Z,11.82
2022-08-19T06:09:41.081Z,12.10
2022-08-19T06:12:10.468Z,10.93
2022-08-19T06:14:40.353Z,11.73
2022-08-19T06:17:09.095Z,11.32
2022-08-19T06:19:40.736Z,11.50
2022-08-19T06:22:08.268Z,11.80
2022-08-19T06:24:34.744Z,12.15
2022-08-19T06:27:02.025Z,12.37
2022-08-19T06:29:29.069Z,12.07
2022-08-19T06:31:57.251Z,12.88
2022-08-19T06:34:23.803Z,12.57
2022-08-19T06:36:52.297Z,13.10
2022-08-19T06:39:25.050Z,13.07
2022-08-19T06:41:58.188Z,13.73
2022-08-19T06:44:28.767Z,12.82
2022-08-19T06:46:57.366Z,13.50
2022-08-19T06:49:24.068Z,13.73
2022-08-19T06:51:51.898Z,13.20
2022-08-19T06:54:20.391Z,13.00
2022-08-19T06:56:47.663Z,13.43
2022-08-19T06:59:20.036Z,12.68
2022-08-19T07:01:49.546Z,12.77
2022-08-19T07:04:18.658Z,13.87
2022-08-19T07:06:46.130Z,12.85
2022-08-19T07:09:21.619Z,12.82
2022-08-19T07:11:50.427Z,13.07
2022-08-19T07:14:19.987Z,14.02
2022-08-19T07:16:49.290Z,13.63
2022-08-19T07:19:18.650Z,13.73
2022-08-19T07:21:49.895Z,14.20
2022-08-19T07:24:18.295Z,14.43
2022-08-19T07:26:45.590Z,14.80
2022-08-19T07:29:12.635Z,14.77
2022-08-19T07:31:40.629Z,14.45
2022-08-19T07:34:14.279Z,14.20
2022-08-19T07:36:42.956Z,14.35
2022-08-19T07:39:13.872Z,14.20
2022-08-19T07:41:40.622Z,13.53
2022-08-19T07:44:09.158Z,13.95
2022-08-19T07:46:38.647Z,14.10
2022-08-19T07:49:06.927Z,14.50
2022-08-19T07:51:36.932Z,14.57
2022-08-19T07:54:04.688Z,14.27
2022-08-19T07:56:31.272Z,14.18
2022-08-19T07:58:58.086Z,14.43
2022-08-19T08:01:27.381Z,13.48
2022-08-19T08:04:14.375Z,13.30
2022-08-19T08:06:59.619Z,13.93
2022-08-19T08:09:39.267Z,13.38
2022-08-19T08:12:33.016Z,13.82
2022-08-19T08:15:08.266Z,13.88
2022-08-19T08:17:49.570Z,14.25
2022-08-19T08:20:18.742Z,13.07
2022-08-19T08:23:05.523Z,13.50
2022-08-19T08:25:32.585Z,13.68
2022-08-19T08:28:01.197Z,13.15
2022-08-19T08:30:31.009Z,13.63
2022-08-19T08:32:57.735Z,12.83
2022-08-19T08:35:25.552Z,13.32
2022-08-19T08:37:54.537Z,12.50
2022-08-19T08:40:29.454Z,12.57
2022-08-19T08:45:41.122Z,13.27
2022-08-19T08:48:23.839Z,12.70
2022-08-19T08:50:55.733Z,12.90
2022-08-19T08:53:29.769Z,12.82
2022-08-19T08:56:02.903Z,12.88
2022-08-19T08:59:07.753Z,12.30
2022-08-19T09:01:34.730Z,12.90
2022-08-19T09:04:03.906Z,13.18
2022-08-19T09:06:41.152Z,13.10
2022-08-19T09:09:32.017Z,12.73
2022-08-19T09:12:11.665Z,15.17
2022-08-19T09:15:01.264Z,12.70
2022-08-19T09:17:34.551Z,13.45
2022-08-19T09:20:11.710Z,13.02
2022-08-19T09:22:39.350Z,13.88
2022-08-19T09:25:09.153Z,12.63
2022-08-19T09:27:43.020Z,12.60
2022-08-19T09:30:15.692Z,12.63
2022-08-19T09:32:43.427Z,12.25
2022-08-19T09:35:10.409Z,12.32
2022-08-19T09:37:37.461Z,12.70
2022-08-19T09:40:05.142Z,13.00
2022-08-19T09:42:35.337Z,12.55
2022-08-19T09:45:04.977Z,12.20
2022-08-19T09:47:33.364Z,11.77
2022-08-19T09:49:59.781Z,11.27
2022-08-19T09:52:26.183Z,11.77
2022-08-19T09:54:59.447Z,11.38
2022-08-19T09:57:25.912Z,11.23
2022-08-19T09:59:52.364Z,11.55
2022-08-19T10:02:22.219Z,10.87
2022-08-19T10:05:07.523Z,10.88
2022-08-19T10:07:36.509Z,11.35
2022-08-19T10:10:07.705Z,10.55
2022-08-19T10:12:34.924Z,10.50
2022-08-19T10:15:02.435Z,10.63
2022-08-19T10:17:31.639Z,10.60
2022-08-19T10:20:00.861Z,11.02
2022-08-19T10:22:27.508Z,11.02
2022-08-19T10:24:54.692Z,11.43
2022-08-19T10:27:21.588Z,11.33
2022-08-19T10:29:48.884Z,11.57
2022-08-19T10:32:16.790Z,10.48
2022-08-19T10:34:48.486Z,11.25
2022-08-19T10:37:29.100Z,11.20
2022-08-19T10:39:58.215Z,10.80
2022-08-19T10:42:24.924Z,10.63
2022-08-19T10:44:51.933Z,10.65
2022-08-19T10:47:25.892Z,10.60
2022-08-19T10:50:15.056Z,11.00
2022-08-19T10:52:49.973Z,11.00
2022-08-19T10:55:40.118Z,10.88
2022-08-19T10:58:14.657Z,10.90
2022-08-19T11:00:42.324Z,10.20
2022-08-19T11:03:09.505Z,10.48
2022-08-19T11:05:40.181Z,10.70
2022-08-19T11:08:22.506Z,9.85
2022-08-19T11:10:51.052Z,10.63
2022-08-19T11:13:17.482Z,10.43
2022-08-19T11:15:44.052Z,10.88
2022-08-19T11:18:13.330Z,10.23
2022-08-19T11:20:40.125Z,10.60
2022-08-19T11:23:07.360Z,9.95
2022-08-19T11:25:34.213Z,9.55
2022-08-19T11:28:00.596Z,9.40
2022-08-19T11:30:26.943Z,9.77
2022-08-19T11:32:53.402Z,9.55
2022-08-19T11:35:20.451Z,9.63
2022-08-19T11:37:46.992Z,9.15
2022-08-19T11:40:13.478Z,8.48
2022-08-19T11:42:57.971Z,8.80
2022-08-19T11:45:26.501Z,8.45
2022-08-19T11:47:53.538Z,8.70
2022-08-19T11:50:21.154Z,8.90
2022-08-19T11:52:48.309Z,8.80
2022-08-19T11:55:15.051Z,8.27
2022-08-19T11:57:44.586Z,8.30
2022-08-19T12:00:13.594Z,8.40
2022-08-19T12:02:40.603Z,8.48
2022-08-19T12:05:11.984Z,9.02
2022-08-19T12:07:39.504Z,8.50
2022-08-19T12:10:06.245Z,8.40
2022-08-19T12:12:32.872Z,8.90
2022-08-19T12:14:59.416Z,8.75
2022-08-19T12:17:29.627Z,8.75
2022-08-19T12:19:56.241Z,9.30
2022-08-19T12:22:22.824Z,9.25
2022-08-19T12:24:51.627Z,14.73
2022-08-19T12:27:31.897Z,9.60
2022-08-19T12:30:07.580Z,9.45
2022-08-19T12:32:34.680Z,8.70
2022-08-19T12:35:03.426Z,9.48
2022-08-19T12:37:30.887Z,9.50
2022-08-19T12:39:57.367Z,9.63
2022-08-19T12:42:23.932Z,9.43
2022-08-19T12:44:51.383Z,10.00
2022-08-19T12:47:18.002Z,9.02
2022-08-19T12:49:53.573Z,9.15
2022-08-19T12:52:23.710Z,8.70
2022-08-19T12:54:54.163Z,9.80
2022-08-19T12:57:22.215Z,8.80
2022-08-19T12:59:54.514Z,8.43
2022-08-19T13:02:21.048Z,8.70
2022-08-19T13:04:47.627Z,8.60
2022-08-19T13:07:14.046Z,8.63
2022-08-19T13:09:43.420Z,8.43
2022-08-19T13:12:13.825Z,8.85
2022-08-19T13:14:41.318Z,8.50
2022-08-19T13:17:09.210Z,8.50
2022-08-19T13:19:37.729Z,8.35
2022-08-19T13:22:04.308Z,8.03
2022-08-19T13:24:41.956Z,8.23
2022-08-19T13:27:11.607Z,8.75
2022-08-19T13:29:56.578Z,8.35
2022-08-19T13:32:41.352Z,9.02
2022-08-19T13:35:09.956Z,8.10
2022-08-19T13:37:44.248Z,8.05
2022-08-19T13:40:19.291Z,8.27
2022-08-19T13:42:48.342Z,7.95
2022-08-19T13:45:18.812Z,7.82
2022-08-19T13:47:59.484Z,8.13
2022-08-19T13:50:29.577Z,7.68
2022-08-19T13:52:57.039Z,8.05
2022-08-19T13:55:24.920Z,7.82
2022-08-19T13:57:54.000Z,8.13
2022-08-19T14:00:22.555Z,7.87
2022-08-19T14:02:52.382Z,8.15
2022-08-19T14:05:19.835Z,8.65
2022-08-19T14:07:46.469Z,8.38
2022-08-19T14:10:13.919Z,9.20
2022-08-19T14:12:41.079Z,8.40
2022-08-19T14:15:09.380Z,8.25
2022-08-19T14:17:38.101Z,8.38
2022-08-19T14:20:10.672Z,8.40
2022-08-19T14:22:40.834Z,8.32
2022-08-19T14:25:10.216Z,8.43
2022-08-19T14:27:38.418Z,7.95
2022-08-19T14:30:07.725Z,8.07
2022-08-19T14:32:35.192Z,7.70
2022-08-19T14:35:02.885Z,7.80
2022-08-19T14:37:29.476Z,7.80
2022-08-19T14:39:56.162Z,7.50
2022-08-19T14:42:22.631Z,7.78
2022-08-19T14:44:49.144Z,6.90
2022-08-19T14:47:15.531Z,7.30
2022-08-19T14:49:44.775Z,7.23
2022-08-19T14:52:14.847Z,7.55
2022-08-19T14:54:41.330Z,7.20
2022-08-19T14:57:07.945Z,7.18
2022-08-19T14:59:35.626Z,7.38
2022-08-19T15:02:33.607Z,7.80
2022-08-19T15:04:48.461Z,7.22
2022-08-19T15:07:28.888Z,7.30
2022-08-19T15:09:56.440Z,7.28
2022-08-19T15:12:23.428Z,7.45
2022-08-19T15:14:52.931Z,7.30
2022-08-19T15:17:25.704Z,7.43
2022-08-19T15:20:11.302Z,7.65
2022-08-19T15:22:37.852Z,7.47
2022-08-19T15:25:06.338Z,7.57
2022-08-19T15:27:32.892Z,7.50
2022-08-19T15:30:01.511Z,7.60
2022-08-19T15:32:31.273Z,8.07
2022-08-19T15:34:57.639Z,8.13
2022-08-19T15:37:25.085Z,8.07
2022-08-19T15:39:51.741Z,7.83
2022-08-19T15:42:29.753Z,8.43
2022-08-19T15:44:56.892Z,8.13
2022-08-19T15:47:34.657Z,8.10
2022-08-19T15:50:18.757Z,8.70
2022-08-19T15:52:50.751Z,8.57
2022-08-19T15:55:33.674Z,9.18
2022-08-19T15:58:28.748Z,9.13
2022-08-19T16:01:24.441Z,8.90
2022-08-19T16:04:14.944Z,8.43
2022-08-19T16:06:48.143Z,8.57
2022-08-19T16:09:15.879Z,8.45
2022-08-19T16:11:45.757Z,8.98
2022-08-19T16:14:13.349Z,8.63
2022-08-19T16:16:39.837Z,9.18
2022-08-19T16:19:10.524Z,8.30
2022-08-19T16:21:41.448Z,8.27
2022-08-19T16:24:10.861Z,8.90
2022-08-19T16:26:37.674Z,8.38
2022-08-19T16:29:12.024Z,8.60
2022-08-19T16:31:40.344Z,8.63
2022-08-19T16:34:06.943Z,8.65
2022-08-19T16:36:33.802Z,8.30
2022-08-19T16:39:01.105Z,8.55
2022-08-19T16:41:28.574Z,8.95
2022-08-19T16:43:55.290Z,8.10
2022-08-19T16:46:23.365Z,8.65
2022-08-19T16:48:54.410Z,8.60
2022-08-19T16:51:22.531Z,8.73
2022-08-19T16:53:48.992Z,8.70
2022-08-19T16:56:15.923Z,8.60
2022-08-19T16:58:42.593Z,8.73
2022-08-19T17:01:10.482Z,8.48
2022-08-19T17:03:39.872Z,8.73
2022-08-19T17:06:21.200Z,9.10
2022-08-19T17:08:49.606Z,8.93
2022-08-19T17:11:18.846Z,9.18
2022-08-19T17:13:45.485Z,9.27
2022-08-19T17:16:18.446Z,9.13
2022-08-19T17:18:45.089Z,8.43
2022-08-19T17:21:13.041Z,9.23
2022-08-19T17:23:42.802Z,8.70
2022-08-19T17:26:17.233Z,8.40
2022-08-19T17:28:51.515Z,8.18
2022-08-19T17:31:20.039Z,8.80
2022-08-19T17:33:48.670Z,7.43
2022-08-19T17:36:23.253Z,7.63
2022-08-19T17:38:50.981Z,6.70
2022-08-19T17:41:17.503Z,5.65
2022-08-19T17:43:44.314Z,5.07
2022-08-19T17:46:18.155Z,5.73
2022-08-19T17:48:51.854Z,5.57
2022-08-19T17:51:24.127Z,5.47
2022-08-19T17:53:52.602Z,5.30
2022-08-19T17:56:19.557Z,5.43
2022-08-19T17:58:57.839Z,5.50
2022-08-19T18:01:34.105Z,5.65
2022-08-19T18:04:14.761Z,5.60
2022-08-19T18:06:41.798Z,5.30
2022-08-19T18:09:13.481Z,5.32
2022-08-19T18:11:39.923Z,5.80
2022-08-19T18:14:06.362Z,5.15
2022-08-19T18:16:32.822Z,5.70
2022-08-19T18:18:59.572Z,5.55
2022-08-19T18:21:31.509Z,5.68
2022-08-19T18:24:01.630Z,5.30
2022-08-19T18:26:30.215Z,4.88
2022-08-19T18:28:57.217Z,5.28
2022-08-19T18:31:23.717Z,5.60
2022-08-19T18:33:52.534Z,5.80
2022-08-19T18:36:37.366Z,5.73
2022-08-19T18:39:24.614Z,6.05
2022-08-19T18:42:09.969Z,5.50
2022-08-19T18:44:59.751Z,5.90
2022-08-19T18:47:45.250Z,5.50
2022-08-19T18:50:12.961Z,5.77
2022-08-19T18:52:40.423Z,5.70
2022-08-19T18:55:07.510Z,6.28
2022-08-19T18:57:34.473Z,6.18
2022-08-19T19:00:03.708Z,5.95
2022-08-19T19:02:38.448Z,6.03
2022-08-19T19:05:07.567Z,6.55
2022-08-19T19:07:34.860Z,6.53
2022-08-19T19:10:01.284Z,6.93
2022-08-19T19:12:30.613Z,6.65
2022-08-19T19:14:58.605Z,6.73
2022-08-19T19:17:28.379Z,6.90
2022-08-19T19:19:54.987Z,6.95
2022-08-19T19:22:22.972Z,6.97
2022-08-19T19:24:50.791Z,6.88
2022-08-19T19:27:20.462Z,7.40
2022-08-19T19:29:51.944Z,7.50
2022-08-19T19:32:36.946Z,7.18
2022-08-19T19:35:06.812Z,8.05
2022-08-19T19:37:33.508Z,7.75
2022-08-19T19:39:59.941Z,7.90
2022-08-19T19:42:26.444Z,8.15
2022-08-19T19:44:54.677Z,8.30
2022-08-19T19:47:24.190Z,8.05
2022-08-19T19:52:44.391Z,8.00
2022-08-19T19:55:15.577Z,7.82
2022-08-19T19:57:42.030Z,8.43
2022-08-19T20:00:09.807Z,8.32
2022-08-19T20:02:36.217Z,8.15
2022-08-19T20:05:02.755Z,8.40
2022-08-19T20:07:47.982Z,8.13
2022-08-19T20:10:14.913Z,8.88
2022-08-19T20:12:41.345Z,8.52
2022-08-19T20:15:08.555Z,9.25
2022-08-19T20:17:36.450Z,9.30
2022-08-19T20:20:03.057Z,9.18
2022-08-19T20:22:34.041Z,10.20
2022-08-19T20:25:01.754Z,9.50
2022-08-19T20:27:31.145Z,9.23
2022-08-19T20:30:05.371Z,9.10
2022-08-19T20:32:32.201Z,9.63
2022-08-19T20:34:59.637Z,10.05
2022-08-19T20:37:26.173Z,10.50
2022-08-19T20:39:52.946Z,11.10
2022-08-19T20:42:19.631Z,10.63
2022-08-19T20:44:46.278Z,10.90
2022-08-19T20:47:12.657Z,10.50
2022-08-19T20:49:39.147Z,11.10
2022-08-19T20:52:06.199Z,11.18
2022-08-19T20:54:33.158Z,11.43
2022-08-19T20:56:59.711Z,11.23
2022-08-19T20:59:26.938Z,11.40
2022-08-19T21:01:53.421Z,11.35
2022-08-19T21:04:21.331Z,11.55
2022-08-19T21:06:51.132Z,11.47
2022-08-19T21:09:17.808Z,13.15
2022-08-19T21:11:44.683Z,12.65
2022-08-19T21:14:11.864Z,12.93
2022-08-19T21:16:38.441Z,12.60
2022-08-19T21:19:04.903Z,12.73
2022-08-19T21:21:31.478Z,13.27
2022-08-19T21:23:57.937Z,12.63
2022-08-19T21:26:24.428Z,12.77
2022-08-19T21:28:50.880Z,13.15
2022-08-19T21:31:17.894Z,13.63
2022-08-19T21:33:44.728Z,14.20
2022-08-19T21:36:11.420Z,13.32
2022-08-19T21:38:38.266Z,13.48
2022-08-19T21:41:06.675Z,13.95
2022-08-19T21:43:34.884Z,13.93
2022-08-19T21:46:01.699Z,14.07
2022-08-19T21:48:28.421Z,14.10
2022-08-19T21:50:54.878Z,14.95
2022-08-19T21:53:23.025Z,14.45
2022-08-19T21:55:53.428Z,13.93
2022-08-19T21:58:30.149Z,14.30
2022-08-19T22:00:57.660Z,14.05
2022-08-19T22:03:25.647Z,14.30
2022-08-19T22:05:52.164Z,13.75
2022-08-19T22:08:18.611Z,14.10
2022-08-19T22:10:45.251Z,14.70
2022-08-19T22:13:13.053Z,13.90
2022-08-19T22:15:39.472Z,13.15
2022-08-19T22:18:05.960Z,14.30
2022-08-19T22:20:32.673Z,14.00
2022-08-19T22:23:02.231Z,13.57
2022-08-19T22:25:41.059Z,13.70
2022-08-19T22:28:11.002Z,13.93
2022-08-19T22:30:38.957Z,13.88
2022-08-19T22:33:11.583Z,13.83
2022-08-19T22:35:40.374Z,14.75
2022-08-19T22:38:08.239Z,15.57
2022-08-19T22:40:39.576Z,14.75
2022-08-19T22:43:15.556Z,14.63
2022-08-19T22:45:43.329Z,14.40
2022-08-19T22:48:11.882Z,15.43
2022-08-19T22:50:40.871Z,14.77
2022-08-19T22:53:09.545Z,14.55
2022-08-19T22:55:38.001Z,15.38
2022-08-19T22:58:05.471Z,15.63
2022-08-19T23:00:32.255Z,16.38
2022-08-19T23:02:59.094Z,16.80
2022-08-19T23:05:27.823Z,16.13
2022-08-19T23:07:57.081Z,16.02
2022-08-19T23:10:27.359Z,15.83
2022-08-19T23:12:56.521Z,14.90
2022-08-19T23:15:26.325Z,16.38
2022-08-19T23:17:54.556Z,15.50
2022-08-19T23:20:23.213Z,16.58
2022-08-19T23:22:50.895Z,16.07
2022-08-19T23:25:20.209Z,16.10
2022-08-19T23:28:06.878Z,15.70
2022-08-19T23:30:36.520Z,15.20
2022-08-19T23:33:12.350Z,15.00
2022-08-19T23:35:41.086Z,16.03
2022-08-19T23:38:08.909Z,16.02
2022-08-19T23:40:37.152Z,16.73
2022-08-19T23:43:08.215Z,16.00
2022-08-19T23:45:40.690Z,15.38
2022-08-19T23:48:17.636Z,15.33
2022-08-19T23:50:45.288Z,16.00
2022-08-19T23:53:13.632Z,16.95
2022-08-19T23:55:44.351Z,16.10
2022-08-19T23:58:12.298Z,15.40
